Juan de Fuca Strait - west entrance: Past 24 Hour Conditions

 

Sentry Shoal - 46131

11:00 AM PST 19 December 2014Buoy position: 49.92N 125.0W
Disclaimer

This table is a summary of hourly weather conditions for the past 24 hours.
Please note that these observations might not always be representative of weather conditions over their associated marine area.

Date / Time
(PST)
Wind(knots) Wave height(m) Wave period(s) Pressure(kPa) Air tempC) Water tempC)
19 December 2014
11:00 SSE 12 gust 14 0.6 4.0 100.9 9 9
10:00 SSE 18 gust 21 0.7 4.0 100.8 8 9
9:00 SSE 14 gust 16 0.6 4.0 100.8 8 9
8:00 SE 16 gust 21 0.7 4.0 100.6 9 9
7:00 SSE 16 gust 21 0.8 4.0 100.6 9 9
6:00 ESE 16 gust 19 0.9 4.0 100.5 9 9
5:00 SE 18 gust 21 0.9 4.0 100.5 10 9
4:00 SE 16 gust 19 1.1 5.0 100.4 10 9
3:00 SE 19 gust 25 1.2 5.0 100.4 9 9
2:00 SE 18 gust 21 1.2 5.0 100.4 9 9
1:00 SE 19 gust 23 1.4 5.0 100.3 9 9
0:00 SE 21 gust 25 1.7 5.0 100.2 9 9
18 December 2014
23:00 SE 23 gust 27 1.8 6.0 100.2 9 9
22:00 SE 25 gust 31 1.9 5.0 100.1 9 9
21:00 SE 23 gust 31 1.8 6.0 100.1 9 9
20:00 SE 21 gust 25 1.6 6.0 100.2 9 9
19:00 ESE 21 gust 27 1.8 6.0 100.1 9 9
18:00 ESE 19 gust 25 1.7 5.0 100.2 9 9
17:00 ESE 19 gust 25 1.7 5.0 100.3 8 9
16:00 ESE 21 gust 25 1.5 5.0 100.3 8 9
15:00 ESE 21 gust 27 1.3 5.0 100.4 8 9
14:00 ESE 21 gust 27 1.4 5.0 100.5 8 9
13:00 SE 19 gust 23 1.4 4.0 100.6 8 9
12:00 ESE 21 gust 27 1.4 5.0 100.8 8 9
11:00 ESE 23 gust 29 1.3 5.0 100.9 8 9
Map of Pacific - South Coast marine weather areas Tsawwassen Ferry Terminal South Nomad - 46036 Sentry Shoal - 46131 South Brooks - 46132 Halibut Bank - 46146 South Moresby - 46147 South Hecate Strait - 46185 West Sea Otter - 46204 La Perouse Bank - 46206 East Dellwood - 46207 Discovery Island Esquimalt Harbour Kelp Reefs Malahat Race Rocks Lightstation Saturna Island Sheringham Point University of Victoria Victoria Gonzales Victoria Int'l Airport Ballenas Islands Campbell River Airport Comox Airport Entrance Island Fanny Island Nanaimo Airport Port Hardy Airport Sisters Islets Estevan Point Sartine Island Solander Island Tofino Airport Grief Point Powell River Airport Sechelt Cape St.James Bella Bella Airport Bella Coola Airport Cathedral Point Herbert Island Point Atkinson Sand Heads Lightstation Vancouver Harbour Vancouver Int'l Airport West Vancouver Port Alberni Howe Sound - Pam Rocks Squamish Airport
Legend:
buoy Buoy
land station Land Station

Pacific - South Coast Area

Another Region

What we are doing

Date modified: